Hauptseite
METAR-TAF:

METAR-TAF

Flughäfen :

Aberdeen, Schottland

Flughafen Aberdeen International

Breite: 57-12N, Länge: 002-13W, Höhe: 65 m

Beobachtung

Neuester Wetterbericht von vor 40 Minuten, um 06:20 UTC
Wind 2 kt aus unterschiedlichen Richtungen
Temperatur -4°C
Luftfeuchtigkeit 86%
Luftdruck 996 hPa
Sichtweite 10 km oder mehr

METAR: EGPD 200620Z AUTO VRB02KT 9999 NCD M04/M06 Q0996 NOSIG

Zeit: 07:00 (07:00 UTC)

Prognose

Neuester Wetterbericht von vor 2 Stunden und 6 Minuten, um 04:54 UTC
Gültige Prognose vom 20 um 06 UTC bis 21 um 06 UTC
Wind 5 kt aus West
Sichtweite 10 km oder mehr
Leicht bewölkt in der Höhe von 4000 ft

TAF: EGPD 200454Z 2006/2106 27005KT 9999 FEW040

Wetterbeobachtungen und Prognosen von mehr als 4000 Flughäfen (METAR und TAF Bericht).

Die verfügbaren Stationen werden durch gelbe und rote Markierungen auf der Karte dargestellt.

Führen Sie die Maus auf sie, um den Namen der Station zu sehen.

Darauf klicken, um die Beobachtung von Wetterbeobachtungen und Prognosen zu sehen.

Um die Karte zu ändern : klicken Sie auf den grünen Tasten mit einem schwarzen Kreuz Zum Vergrößern, auf den grünen Button mit einem Gedankenstrich zu verkleinern, oder auf die grünen Pfeile für benachbarte Karten.


METAR-TAF: